sensor_id;sensor_type;location;lat;lon;timestamp;pressure;altitude;pressure_sealevel;temperature;humidity
73101;BME280;61288;53.446;-2.266;2023-05-13T00:01:07;102698.59;;;7.79;90.98
73101;BME280;61288;53.446;-2.266;2023-05-13T00:03:32;102696.88;;;7.82;90.72
73101;BME280;61288;53.446;-2.266;2023-05-13T00:05:58;102703.75;;;7.83;90.58
73101;BME280;61288;53.446;-2.266;2023-05-13T00:08:23;102702.03;;;7.82;90.85
73101;BME280;61288;53.446;-2.266;2023-05-13T00:10:49;102691.72;;;7.82;90.92
73101;BME280;61288;53.446;-2.266;2023-05-13T00:13:16;102691.72;;;7.82;91.27
73101;BME280;61288;53.446;-2.266;2023-05-13T00:15:41;102690.84;;;7.79;91.20
73101;BME280;61288;53.446;-2.266;2023-05-13T00:18:07;102699.44;;;7.80;91.00
73101;BME280;61288;53.446;-2.266;2023-05-13T00:20:32;102698.59;;;7.79;91.51
73101;BME280;61288;53.446;-2.266;2023-05-13T00:22:58;102693.41;;;7.75;91.55
73101;BME280;61288;53.446;-2.266;2023-05-13T00:25:23;102684.78;;;7.70;91.48
73101;BME280;61288;53.446;-2.266;2023-05-13T00:27:49;102692.50;;;7.65;92.12
73101;BME280;61288;53.446;-2.266;2023-05-13T00:30:15;102683.88;;;7.58;92.77
73101;BME280;61288;53.446;-2.266;2023-05-13T00:32:40;102683.84;;;7.52;92.41
73101;BME280;61288;53.446;-2.266;2023-05-13T00:35:06;102685.53;;;7.45;94.19
73101;BME280;61288;53.446;-2.266;2023-05-13T00:37:32;102683.81;;;7.43;93.71
73101;BME280;61288;53.446;-2.266;2023-05-13T00:39:58;102685.53;;;7.41;93.70
73101;BME280;61288;53.446;-2.266;2023-05-13T00:42:23;102677.78;;;7.37;93.75
73101;BME280;61288;53.446;-2.266;2023-05-13T00:44:50;102678.66;;;7.40;93.97
73101;BME280;61288;53.446;-2.266;2023-05-13T00:47:16;102681.22;;;7.43;93.88
73101;BME280;61288;53.446;-2.266;2023-05-13T00:49:41;102684.66;;;7.42;93.93
73101;BME280;61288;53.446;-2.266;2023-05-13T00:52:07;102692.38;;;7.40;94.15
73101;BME280;61288;53.446;-2.266;2023-05-13T00:54:32;102697.53;;;7.37;94.20
73101;BME280;61288;53.446;-2.266;2023-05-13T00:56:58;102691.50;;;7.35;94.29
73101;BME280;61288;53.446;-2.266;2023-05-13T00:59:26;102681.19;;;7.33;94.71
73101;BME280;61288;53.446;-2.266;2023-05-13T01:02:13;102683.78;;;7.35;94.23
73101;BME280;61288;53.446;-2.266;2023-05-13T01:04:42;102688.09;;;7.37;94.45
73101;BME280;61288;53.446;-2.266;2023-05-13T01:09:50;102685.53;;;7.41;93.48
73101;BME280;61288;53.446;-2.266;2023-05-13T01:12:32;102676.06;;;7.40;93.08
73101;BME280;61288;53.446;-2.266;2023-05-13T01:15:16;102676.91;;;7.40;93.41
73101;BME280;61288;53.446;-2.266;2023-05-13T01:17:57;102684.66;;;7.40;93.14
73101;BME280;61288;53.446;-2.266;2023-05-13T01:20:26;102681.19;;;7.35;93.20
73101;BME280;61288;53.446;-2.266;2023-05-13T01:22:52;102688.94;;;7.30;93.06
73101;BME280;61288;53.446;-2.266;2023-05-13T01:25:18;102683.72;;;7.26;93.44
73101;BME280;61288;53.446;-2.266;2023-05-13T01:27:47;102679.44;;;7.25;93.64
73101;BME280;61288;53.446;-2.266;2023-05-13T01:30:13;102673.38;;;7.19;93.22
73101;BME280;61288;53.446;-2.266;2023-05-13T01:32:39;102675.97;;;7.19;92.94
73101;BME280;61288;53.446;-2.266;2023-05-13T01:35:07;102682.81;;;7.19;92.94
73101;BME280;61288;53.446;-2.266;2023-05-13T01:37:36;102670.78;;;7.16;92.86
73101;BME280;61288;53.446;-2.266;2023-05-13T01:40:05;102674.19;;;7.12;92.65
73101;BME280;61288;53.446;-2.266;2023-05-13T01:42:31;102681.06;;;7.08;92.79
73101;BME280;61288;53.446;-2.266;2023-05-13T01:44:58;102680.16;;;7.03;92.75
73101;BME280;61288;53.446;-2.266;2023-05-13T01:47:24;102677.56;;;7.02;92.35
73101;BME280;61288;53.446;-2.266;2023-05-13T01:49:49;102680.13;;;6.97;92.26
73101;BME280;61288;53.446;-2.266;2023-05-13T01:52:15;102669.84;;;6.97;92.60
73101;BME280;61288;53.446;-2.266;2023-05-13T01:54:40;102670.66;;;6.94;92.66
73101;BME280;61288;53.446;-2.266;2023-05-13T01:57:06;102676.66;;;6.92;92.87
73101;BME280;61288;53.446;-2.266;2023-05-13T01:59:32;102674.91;;;6.88;93.28
73101;BME280;61288;53.446;-2.266;2023-05-13T02:01:57;102678.31;;;6.84;92.98
73101;BME280;61288;53.446;-2.266;2023-05-13T02:04:23;102670.59;;;6.82;92.78
73101;BME280;61288;53.446;-2.266;2023-05-13T02:06:48;102668.00;;;6.82;93.83
73101;BME280;61288;53.446;-2.266;2023-05-13T02:09:14;102672.28;;;6.78;92.96
73101;BME280;61288;53.446;-2.266;2023-05-13T02:11:39;102678.28;;;6.77;94.42
73101;BME280;61288;53.446;-2.266;2023-05-13T02:14:05;102679.94;;;6.74;93.55
73101;BME280;61288;53.446;-2.266;2023-05-13T02:16:30;102673.94;;;6.75;93.69
73101;BME280;61288;53.446;-2.266;2023-05-13T02:18:56;102669.66;;;6.75;92.46
73101;BME280;61288;53.446;-2.266;2023-05-13T02:21:22;102669.66;;;6.74;92.39
73101;BME280;61288;53.446;-2.266;2023-05-13T02:23:47;102670.50;;;6.73;92.51
73101;BME280;61288;53.446;-2.266;2023-05-13T02:26:13;102667.06;;;6.71;93.08
73101;BME280;61288;53.446;-2.266;2023-05-13T02:28:38;102665.31;;;6.70;93.57
73101;BME280;61288;53.446;-2.266;2023-05-13T02:31:04;102666.19;;;6.69;93.73
73101;BME280;61288;53.446;-2.266;2023-05-13T02:33:29;102661.84;;;6.64;93.13
73101;BME280;61288;53.446;-2.266;2023-05-13T02:35:55;102662.66;;;6.57;92.89
73101;BME280;61288;53.446;-2.266;2023-05-13T02:38:22;102660.88;;;6.47;92.48
73101;BME280;61288;53.446;-2.266;2023-05-13T02:40:49;102657.31;;;6.31;95.02
73101;BME280;61288;53.446;-2.266;2023-05-13T02:43:15;102658.94;;;6.26;94.50
73101;BME280;61288;53.446;-2.266;2023-05-13T02:45:40;102656.38;;;6.26;94.66
73101;BME280;61288;53.446;-2.266;2023-05-13T02:48:06;102660.63;;;6.20;94.97
73101;BME280;61288;53.446;-2.266;2023-05-13T02:50:33;102660.59;;;6.17;95.77
73101;BME280;61288;53.446;-2.266;2023-05-13T02:52:59;102660.59;;;6.16;95.37
73101;BME280;61288;53.446;-2.266;2023-05-13T02:55:25;102651.97;;;6.12;94.82
73101;BME280;61288;53.446;-2.266;2023-05-13T02:57:51;102654.53;;;6.11;95.33
73101;BME280;61288;53.446;-2.266;2023-05-13T03:00:18;102647.69;;;6.11;95.84
73101;BME280;61288;53.446;-2.266;2023-05-13T03:02:43;102646.81;;;6.11;95.62
73101;BME280;61288;53.446;-2.266;2023-05-13T03:05:09;102645.94;;;6.10;95.38
73101;BME280;61288;53.446;-2.266;2023-05-13T03:07:35;102650.19;;;6.06;95.08
73101;BME280;61288;53.446;-2.266;2023-05-13T03:10:01;102653.59;;;6.02;94.77
73101;BME280;61288;53.446;-2.266;2023-05-13T03:12:26;102638.94;;;5.98;95.69
73101;BME280;61288;53.446;-2.266;2023-05-13T03:14:52;102639.81;;;5.99;96.25
73101;BME280;61288;53.446;-2.266;2023-05-13T03:17:17;102629.53;;;5.99;96.41
73101;BME280;61288;53.446;-2.266;2023-05-13T03:19:42;102621.88;;;6.02;96.54
73101;BME280;61288;53.446;-2.266;2023-05-13T03:22:08;102625.22;;;5.99;95.96
73101;BME280;61288;53.446;-2.266;2023-05-13T03:24:34;102631.13;;;5.90;95.02
73101;BME280;61288;53.446;-2.266;2023-05-13T03:27:00;102631.91;;;5.80;95.09
73101;BME280;61288;53.446;-2.266;2023-05-13T03:29:26;102635.22;;;5.71;95.07
73101;BME280;61288;53.446;-2.266;2023-05-13T03:31:52;102643.72;;;5.64;95.02
73101;BME280;61288;53.446;-2.266;2023-05-13T03:34:18;102652.22;;;5.57;95.81
73101;BME280;61288;53.446;-2.266;2023-05-13T03:36:44;102665.88;;;5.54;96.55
73101;BME280;61288;53.446;-2.266;2023-05-13T03:39:10;102654.72;;;5.51;96.86
73101;BME280;61288;53.446;-2.266;2023-05-13T03:41:36;102655.53;;;5.48;97.38
73101;BME280;61288;53.446;-2.266;2023-05-13T03:44:02;102641.09;;;5.58;98.49
73101;BME280;61288;53.446;-2.266;2023-05-13T03:46:27;102648.94;;;5.69;97.42
73101;BME280;61288;53.446;-2.266;2023-05-13T03:48:53;102647.19;;;5.64;96.75
73101;BME280;61288;53.446;-2.266;2023-05-13T03:51:21;102655.66;;;5.60;97.58
73101;BME280;61288;53.446;-2.266;2023-05-13T03:53:47;102643.69;;;5.62;97.44
73101;BME280;61288;53.446;-2.266;2023-05-13T03:56:13;102642.88;;;5.65;97.42
73101;BME280;61288;53.446;-2.266;2023-05-13T03:58:39;102654.06;;;5.70;96.85
73101;BME280;61288;53.446;-2.266;2023-05-13T04:01:08;102658.41;;;5.73;97.01
73101;BME280;61288;53.446;-2.266;2023-05-13T04:03:33;102656.75;;;5.78;96.42
73101;BME280;61288;53.446;-2.266;2023-05-13T04:05:59;102649.03;;;5.79;96.27
73101;BME280;61288;53.446;-2.266;2023-05-13T04:08:25;102651.63;;;5.81;95.93
73101;BME280;61288;53.446;-2.266;2023-05-13T04:10:51;102653.38;;;5.85;95.50
73101;BME280;61288;53.446;-2.266;2023-05-13T04:13:17;102654.25;;;5.87;95.52
73101;BME280;61288;53.446;-2.266;2023-05-13T04:15:42;102653.44;;;5.90;95.35
73101;BME280;61288;53.446;-2.266;2023-05-13T04:18:08;102664.63;;;5.92;95.15
73101;BME280;61288;53.446;-2.266;2023-05-13T04:20:37;102652.59;;;5.92;95.37
73101;BME280;61288;53.446;-2.266;2023-05-13T04:23:04;102648.31;;;5.93;94.96
73101;BME280;61288;53.446;-2.266;2023-05-13T04:25:30;102652.63;;;5.96;95.34
73101;BME280;61288;53.446;-2.266;2023-05-13T04:27:56;102657.78;;;5.96;95.04
73101;BME280;61288;53.446;-2.266;2023-05-13T04:32:57;102669.72;;;5.90;95.28
73101;BME280;61288;53.446;-2.266;2023-05-13T04:35:23;102675.72;;;5.89;95.37
73101;BME280;61288;53.446;-2.266;2023-05-13T04:37:49;102674.00;;;5.88;95.92
73101;BME280;61288;53.446;-2.266;2023-05-13T04:40:15;102671.41;;;5.87;95.13
73101;BME280;61288;53.446;-2.266;2023-05-13T04:42:41;102668.81;;;5.85;95.48
73101;BME280;61288;53.446;-2.266;2023-05-13T04:45:07;102674.88;;;5.89;95.64
73101;BME280;61288;53.446;-2.266;2023-05-13T04:47:32;102675.72;;;5.89;95.49
73101;BME280;61288;53.446;-2.266;2023-05-13T04:50:02;102683.41;;;5.86;95.50
73101;BME280;61288;53.446;-2.266;2023-05-13T04:52:28;102685.94;;;5.83;95.15
73101;BME280;61288;53.446;-2.266;2023-05-13T04:54:53;102690.25;;;5.83;95.36
73101;BME280;61288;53.446;-2.266;2023-05-13T04:57:19;102681.66;;;5.82;95.43
73101;BME280;61288;53.446;-2.266;2023-05-13T04:59:44;102686.75;;;5.79;96.24
73101;BME280;61288;53.446;-2.266;2023-05-13T05:02:09;102683.41;;;5.85;96.80
73101;BME280;61288;53.446;-2.266;2023-05-13T05:04:35;102688.63;;;5.92;96.26
73101;BME280;61288;53.446;-2.266;2023-05-13T05:07:00;102684.34;;;5.95;95.82
73101;BME280;61288;53.446;-2.266;2023-05-13T05:09:26;102688.72;;;6.00;95.74
73101;BME280;61288;53.446;-2.266;2023-05-13T05:11:51;102686.19;;;6.03;95.76
73101;BME280;61288;53.446;-2.266;2023-05-13T05:14:17;102693.16;;;6.12;95.34
73101;BME280;61288;53.446;-2.266;2023-05-13T05:16:42;102696.63;;;6.17;95.02
73101;BME280;61288;53.446;-2.266;2023-05-13T05:19:08;102683.81;;;6.24;94.84
73101;BME280;61288;53.446;-2.266;2023-05-13T05:21:34;102689.06;;;6.30;93.78
73101;BME280;61288;53.446;-2.266;2023-05-13T05:23:59;102685.69;;;6.37;93.41
73101;BME280;61288;53.446;-2.266;2023-05-13T05:26:26;102686.56;;;6.41;93.48
73101;BME280;61288;53.446;-2.266;2023-05-13T05:28:51;102691.78;;;6.47;93.47
73101;BME280;61288;53.446;-2.266;2023-05-13T05:31:17;102690.09;;;6.49;92.78
73101;BME280;61288;53.446;-2.266;2023-05-13T05:33:43;102687.53;;;6.54;92.58
73101;BME280;61288;53.446;-2.266;2023-05-13T05:36:08;102688.44;;;6.57;92.49
73101;BME280;61288;53.446;-2.266;2023-05-13T05:38:34;102695.31;;;6.58;91.71
73101;BME280;61288;53.446;-2.266;2023-05-13T05:41:00;102695.34;;;6.63;92.04
73101;BME280;61288;53.446;-2.266;2023-05-13T05:43:25;102703.94;;;6.67;91.86
73101;BME280;61288;53.446;-2.266;2023-05-13T05:45:51;102686.81;;;6.72;91.81
73101;BME280;61288;53.446;-2.266;2023-05-13T05:48:16;102696.28;;;6.74;91.28
73101;BME280;61288;53.446;-2.266;2023-05-13T05:50:42;102690.34;;;6.80;90.79
73101;BME280;61288;53.446;-2.266;2023-05-13T05:53:07;102697.19;;;6.83;91.68
73101;BME280;61288;53.446;-2.266;2023-05-13T05:55:33;102686.06;;;6.87;91.21
73101;BME280;61288;53.446;-2.266;2023-05-13T05:57:58;102688.66;;;6.90;90.10
73101;BME280;61288;53.446;-2.266;2023-05-13T06:00:28;102688.69;;;6.94;90.02
73101;BME280;61288;53.446;-2.266;2023-05-13T06:02:55;102689.59;;;7.00;90.08
73101;BME280;61288;53.446;-2.266;2023-05-13T06:05:23;102694.78;;;7.06;90.28
73101;BME280;61288;53.446;-2.266;2023-05-13T06:07:49;102690.47;;;7.05;89.44
73101;BME280;61288;53.446;-2.266;2023-05-13T06:10:14;102688.78;;;7.10;88.65
73101;BME280;61288;53.446;-2.266;2023-05-13T06:12:40;102694.84;;;7.17;88.44
73101;BME280;61288;53.446;-2.266;2023-05-13T06:15:09;102697.47;;;7.21;88.44
73101;BME280;61288;53.446;-2.266;2023-05-13T06:17:38;102694.94;;;7.31;89.12
73101;BME280;61288;53.446;-2.266;2023-05-13T06:20:05;102697.53;;;7.35;86.72
73101;BME280;61288;53.446;-2.266;2023-05-13T06:22:33;102700.13;;;7.37;86.94
73101;BME280;61288;53.446;-2.266;2023-05-13T06:24:58;102692.41;;;7.43;86.45
73101;BME280;61288;53.446;-2.266;2023-05-13T06:27:24;102701.06;;;7.48;86.16
73101;BME280;61288;53.446;-2.266;2023-05-13T06:29:50;102699.31;;;7.52;85.28
73101;BME280;61288;53.446;-2.266;2023-05-13T06:32:15;102709.66;;;7.55;85.96
73101;BME280;61288;53.446;-2.266;2023-05-13T06:34:41;102699.38;;;7.63;86.99
73101;BME280;61288;53.446;-2.266;2023-05-13T06:37:10;102703.69;;;7.70;85.83
73101;BME280;61288;53.446;-2.266;2023-05-13T06:39:36;102694.25;;;7.75;85.30
73101;BME280;61288;53.446;-2.266;2023-05-13T06:42:02;102698.59;;;7.81;84.65
73101;BME280;61288;53.446;-2.266;2023-05-13T06:44:28;102708.06;;;7.94;85.51
73101;BME280;61288;53.446;-2.266;2023-05-13T06:46:54;102691.75;;;8.09;84.35
73101;BME280;61288;53.446;-2.266;2023-05-13T06:49:20;102703.00;;;8.18;82.48
73101;BME280;61288;53.446;-2.266;2023-05-13T06:51:45;102688.34;;;8.15;81.63
73101;BME280;61288;53.446;-2.266;2023-05-13T06:54:12;102679.72;;;8.19;81.21
73101;BME280;61288;53.446;-2.266;2023-05-13T06:56:38;102685.75;;;8.21;81.53
73101;BME280;61288;53.446;-2.266;2023-05-13T06:59:03;102680.59;;;8.38;82.32
73101;BME280;61288;53.446;-2.266;2023-05-13T07:01:29;102686.66;;;8.48;82.06
73101;BME280;61288;53.446;-2.266;2023-05-13T07:03:55;102690.97;;;8.73;82.47
73101;BME280;61288;53.446;-2.266;2023-05-13T07:06:20;102697.00;;;8.90;79.60
73101;BME280;61288;53.446;-2.266;2023-05-13T07:08:46;102690.06;;;9.14;79.19
73101;BME280;61288;53.446;-2.266;2023-05-13T07:11:11;102691.69;;;9.40;78.96
73101;BME280;61288;53.446;-2.266;2023-05-13T07:13:36;102691.69;;;9.49;78.48
73101;BME280;61288;53.446;-2.266;2023-05-13T07:16:02;102691.66;;;9.56;78.55
73101;BME280;61288;53.446;-2.266;2023-05-13T07:18:28;102687.31;;;9.58;77.92
73101;BME280;61288;53.446;-2.266;2023-05-13T07:20:54;102688.19;;;9.60;78.59
73101;BME280;61288;53.446;-2.266;2023-05-13T07:23:23;102683.88;;;9.59;78.45
73101;BME280;61288;53.446;-2.266;2023-05-13T07:25:49;102685.59;;;9.57;78.88
73101;BME280;61288;53.446;-2.266;2023-05-13T07:28:18;102677.84;;;9.55;79.77
73101;BME280;61288;53.446;-2.266;2023-05-13T07:30:45;102683.00;;;9.55;78.97
73101;BME280;61288;53.446;-2.266;2023-05-13T07:33:10;102687.38;;;9.48;78.56
73101;BME280;61288;53.446;-2.266;2023-05-13T07:35:36;102689.94;;;9.50;77.46
73101;BME280;61288;53.446;-2.266;2023-05-13T07:38:02;102690.81;;;9.44;77.80
73101;BME280;61288;53.446;-2.266;2023-05-13T07:40:28;102685.66;;;9.43;78.00
73101;BME280;61288;53.446;-2.266;2023-05-13T07:42:56;102690.84;;;9.43;78.01
73101;BME280;61288;53.446;-2.266;2023-05-13T07:45:21;102690.81;;;9.41;77.74
73101;BME280;61288;53.446;-2.266;2023-05-13T07:47:47;102696.91;;;9.38;80.43
73101;BME280;61288;53.446;-2.266;2023-05-13T07:50:12;102695.16;;;9.37;81.50
73101;BME280;61288;53.446;-2.266;2023-05-13T07:52:38;102702.06;;;9.38;78.25
73101;BME280;61288;53.446;-2.266;2023-05-13T07:55:03;102696.88;;;9.49;79.84
73101;BME280;61288;53.446;-2.266;2023-05-13T07:57:29;102696.84;;;9.51;81.51
73101;BME280;61288;53.446;-2.266;2023-05-13T07:59:55;102695.06;;;9.61;78.92
73101;BME280;61288;53.446;-2.266;2023-05-13T08:02:20;102689.84;;;9.72;77.81
73101;BME280;61288;53.446;-2.266;2023-05-13T08:04:46;102695.91;;;9.66;75.17
73101;BME280;61288;53.446;-2.266;2023-05-13T08:07:11;102695.84;;;9.80;76.59
73101;BME280;61288;53.446;-2.266;2023-05-13T08:09:37;102689.75;;;9.89;76.60
73101;BME280;61288;53.446;-2.266;2023-05-13T08:12:02;102691.41;;;9.99;77.33
73101;BME280;61288;53.446;-2.266;2023-05-13T08:14:28;102689.63;;;10.14;77.99
73101;BME280;61288;53.446;-2.266;2023-05-13T08:16:54;102694.72;;;10.28;76.92
73101;BME280;61288;53.446;-2.266;2023-05-13T08:19:20;102696.31;;;10.39;76.82
73101;BME280;61288;53.446;-2.266;2023-05-13T08:21:45;102682.47;;;10.50;74.84
73101;BME280;61288;53.446;-2.266;2023-05-13T08:24:11;102681.50;;;10.62;74.95
73101;BME280;61288;53.446;-2.266;2023-05-13T08:26:37;102680.53;;;10.71;74.14
73101;BME280;61288;53.446;-2.266;2023-05-13T08:29:02;102678.81;;;10.69;76.29
73101;BME280;61288;53.446;-2.266;2023-05-13T08:31:28;102670.00;;;10.88;74.71
73101;BME280;61288;53.446;-2.266;2023-05-13T08:33:53;102669.88;;;11.02;74.93
73101;BME280;61288;53.446;-2.266;2023-05-13T08:36:19;102676.75;;;11.07;72.33
73101;BME280;61288;53.446;-2.266;2023-05-13T08:38:47;102674.97;;;11.11;69.98
73101;BME280;61288;53.446;-2.266;2023-05-13T08:41:14;102672.44;;;11.06;68.22
73101;BME280;61288;53.446;-2.266;2023-05-13T08:43:45;102677.53;;;11.14;69.68
73101;BME280;61288;53.446;-2.266;2023-05-13T08:46:11;102674.03;;;11.18;68.53
73101;BME280;61288;53.446;-2.266;2023-05-13T08:48:40;102669.41;;;11.42;71.26
73101;BME280;61288;53.446;-2.266;2023-05-13T08:51:09;102674.25;;;11.70;69.36
73101;BME280;61288;53.446;-2.266;2023-05-13T08:53:35;102657.41;;;12.01;67.33
73101;BME280;61288;53.446;-2.266;2023-05-13T08:56:04;102653.34;;;12.39;67.60
73101;BME280;61288;53.446;-2.266;2023-05-13T08:58:30;102658.53;;;12.88;66.84
73101;BME280;61288;53.446;-2.266;2023-05-13T09:00:58;102653.81;;;13.08;68.43
73101;BME280;61288;53.446;-2.266;2023-05-13T09:03:26;102665.59;;;13.26;66.09
73101;BME280;61288;53.446;-2.266;2023-05-13T09:05:52;102663.63;;;13.38;64.12
73101;BME280;61288;53.446;-2.266;2023-05-13T09:08:17;102668.63;;;13.49;65.09
73101;BME280;61288;53.446;-2.266;2023-05-13T09:10:43;102661.00;;;13.38;65.02
73101;BME280;61288;53.446;-2.266;2023-05-13T09:13:10;102665.91;;;13.55;62.13
73101;BME280;61288;53.446;-2.266;2023-05-13T09:15:40;102668.34;;;13.63;63.75
73101;BME280;61288;53.446;-2.266;2023-05-13T09:18:06;102656.78;;;13.76;63.24
73101;BME280;61288;53.446;-2.266;2023-05-13T09:20:32;102660.22;;;13.77;60.47
73101;BME280;61288;53.446;-2.266;2023-05-13T09:23:07;102657.44;;;13.84;63.13
73101;BME280;61288;53.446;-2.266;2023-05-13T09:25:34;102647.72;;;13.91;63.56
73101;BME280;61288;53.446;-2.266;2023-05-13T09:28:03;102646.38;;;14.12;61.15
73101;BME280;61288;53.446;-2.266;2023-05-13T09:30:37;102636.44;;;14.27;59.85
73101;BME280;61288;53.446;-2.266;2023-05-13T09:33:16;102642.88;;;14.48;61.18
73101;BME280;61288;53.446;-2.266;2023-05-13T09:35:48;102635.75;;;14.88;60.59
73101;BME280;61288;53.446;-2.266;2023-05-13T09:38:17;102627.41;;;15.07;59.57
73101;BME280;61288;53.446;-2.266;2023-05-13T09:43:15;102630.34;;;15.26;59.49
73101;BME280;61288;53.446;-2.266;2023-05-13T09:45:40;102626.38;;;15.42;58.05
73101;BME280;61288;53.446;-2.266;2023-05-13T09:48:07;102624.47;;;15.76;57.19
73101;BME280;61288;53.446;-2.266;2023-05-13T09:50:32;102627.13;;;16.03;58.80
73101;BME280;61288;53.446;-2.266;2023-05-13T09:53:08;102623.91;;;16.22;56.13
73101;BME280;61288;53.446;-2.266;2023-05-13T09:55:34;102629.81;;;16.27;54.67
73101;BME280;61288;53.446;-2.266;2023-05-13T09:57:59;102630.59;;;16.30;54.05
73101;BME280;61288;53.446;-2.266;2023-05-13T10:00:25;102635.13;;;16.25;54.86
73101;BME280;61288;53.446;-2.266;2023-05-13T10:02:52;102626.31;;;16.28;53.66
73101;BME280;61288;53.446;-2.266;2023-05-13T10:05:18;102628.00;;;16.29;52.90
73101;BME280;61288;53.446;-2.266;2023-05-13T10:07:44;102624.94;;;16.16;51.78
73101;BME280;61288;53.446;-2.266;2023-05-13T10:10:10;102625.78;;;15.91;51.68
73101;BME280;61288;53.446;-2.266;2023-05-13T10:12:38;102619.59;;;15.94;54.23
73101;BME280;61288;53.446;-2.266;2023-05-13T10:15:06;102622.09;;;15.68;56.96
73101;BME280;61288;53.446;-2.266;2023-05-13T10:17:32;102618.50;;;15.44;58.06
73101;BME280;61288;53.446;-2.266;2023-05-13T10:19:59;102611.25;;;15.81;54.69
73101;BME280;61288;53.446;-2.266;2023-05-13T10:22:30;102603.84;;;15.95;51.74
73101;BME280;61288;53.446;-2.266;2023-05-13T10:25:01;102605.94;;;16.11;53.31
73101;BME280;61288;53.446;-2.266;2023-05-13T10:27:29;102608.47;;;16.14;53.35
73101;BME280;61288;53.446;-2.266;2023-05-13T10:29:56;102609.69;;;16.29;53.17
73101;BME280;61288;53.446;-2.266;2023-05-13T10:32:29;102604.69;;;16.23;52.35
73101;BME280;61288;53.446;-2.266;2023-05-13T10:35:03;102611.00;;;16.42;52.12
73101;BME280;61288;53.446;-2.266;2023-05-13T10:37:57;102608.63;;;16.09;49.79
73101;BME280;61288;53.446;-2.266;2023-05-13T10:43:12;102601.34;;;16.68;52.69
73101;BME280;61288;53.446;-2.266;2023-05-13T10:45:46;102597.06;;;16.42;48.32
73101;BME280;61288;53.446;-2.266;2023-05-13T10:48:13;102590.88;;;16.68;50.80
73101;BME280;61288;53.446;-2.266;2023-05-13T10:50:49;102596.50;;;16.83;50.64
73101;BME280;61288;53.446;-2.266;2023-05-13T10:53:24;102594.78;;;17.06;48.26
73101;BME280;61288;53.446;-2.266;2023-05-13T10:55:54;102588.94;;;17.45;49.04
73101;BME280;61288;53.446;-2.266;2023-05-13T10:58:21;102586.22;;;17.69;48.88
73101;BME280;61288;53.446;-2.266;2023-05-13T11:00:52;102590.00;;;17.84;46.24
73101;BME280;61288;53.446;-2.266;2023-05-13T11:05:47;102578.53;;;17.86;44.43
73101;BME280;61288;53.446;-2.266;2023-05-13T11:08:43;102579.94;;;18.16;44.81
73101;BME280;61288;53.446;-2.266;2023-05-13T11:13:56;102581.22;;;18.07;48.09
73101;BME280;61288;53.446;-2.266;2023-05-13T11:16:27;102580.31;;;18.08;45.43
73101;BME280;61288;53.446;-2.266;2023-05-13T11:18:52;102575.56;;;18.16;45.43
73101;BME280;61288;53.446;-2.266;2023-05-13T11:21:32;102569.88;;;18.27;48.73
73101;BME280;61288;53.446;-2.266;2023-05-13T11:24:03;102569.38;;;18.38;47.87
73101;BME280;61288;53.446;-2.266;2023-05-13T11:26:52;102566.38;;;18.47;47.19
73101;BME280;61288;53.446;-2.266;2023-05-13T11:29:34;102566.25;;;18.89;47.25
73101;BME280;61288;53.446;-2.266;2023-05-13T11:32:04;102560.03;;;19.11;46.34
73101;BME280;61288;53.446;-2.266;2023-05-13T11:34:31;102560.69;;;19.33;43.50
73101;BME280;61288;53.446;-2.266;2023-05-13T11:39:28;102549.84;;;19.76;46.54
73101;BME280;61288;53.446;-2.266;2023-05-13T11:41:55;102552.56;;;19.75;41.84
73101;BME280;61288;53.446;-2.266;2023-05-13T11:44:24;102547.44;;;19.89;43.20
73101;BME280;61288;53.446;-2.266;2023-05-13T11:46:55;102541.22;;;19.92;42.45
73101;BME280;61288;53.446;-2.266;2023-05-13T11:49:43;102538.13;;;20.01;42.28
73101;BME280;61288;53.446;-2.266;2023-05-13T11:52:13;102537.28;;;20.34;41.16
73101;BME280;61288;53.446;-2.266;2023-05-13T11:54:39;102530.16;;;20.37;39.98
73101;BME280;61288;53.446;-2.266;2023-05-13T11:57:16;102535.44;;;20.53;41.17
73101;BME280;61288;53.446;-2.266;2023-05-13T11:59:54;102537.28;;;20.34;40.07
73101;BME280;61288;53.446;-2.266;2023-05-13T12:02:30;102533.06;;;20.14;41.11
73101;BME280;61288;53.446;-2.266;2023-05-13T12:05:01;102526.47;;;20.23;40.11
73101;BME280;61288;53.446;-2.266;2023-05-13T12:07:29;102530.41;;;20.48;41.35
73101;BME280;61288;53.446;-2.266;2023-05-13T12:09:57;102526.53;;;20.55;40.39
73101;BME280;61288;53.446;-2.266;2023-05-13T12:12:23;102524.69;;;20.57;44.43
73101;BME280;61288;53.446;-2.266;2023-05-13T12:14:49;102522.06;;;20.73;42.28
73101;BME280;61288;53.446;-2.266;2023-05-13T12:17:16;102519.31;;;20.75;42.40
73101;BME280;61288;53.446;-2.266;2023-05-13T12:22:34;102517.66;;;20.90;38.48
73101;BME280;61288;53.446;-2.266;2023-05-13T12:25:39;102516.31;;;20.99;42.00
73101;BME280;61288;53.446;-2.266;2023-05-13T12:28:09;102506.91;;;20.77;38.10
73101;BME280;61288;53.446;-2.266;2023-05-13T12:30:38;102506.66;;;20.66;38.44
73101;BME280;61288;53.446;-2.266;2023-05-13T12:33:03;102509.53;;;20.61;38.75
73101;BME280;61288;53.446;-2.266;2023-05-13T12:35:30;102502.50;;;20.77;42.28
73101;BME280;61288;53.446;-2.266;2023-05-13T12:38:03;102500.97;;;20.73;40.63
73101;BME280;61288;53.446;-2.266;2023-05-13T12:40:30;102495.31;;;20.81;42.76
73101;BME280;61288;53.446;-2.266;2023-05-13T12:42:59;102494.19;;;20.85;41.38
73101;BME280;61288;53.446;-2.266;2023-05-13T12:45:30;102499.50;;;20.52;38.68
73101;BME280;61288;53.446;-2.266;2023-05-13T12:47:57;102491.13;;;20.93;45.67
73101;BME280;61288;53.446;-2.266;2023-05-13T12:50:24;102473.84;;;21.03;39.84
73101;BME280;61288;53.446;-2.266;2023-05-13T12:52:51;102484.47;;;21.18;42.36
73101;BME280;61288;53.446;-2.266;2023-05-13T12:55:16;102480.34;;;21.28;42.58
73101;BME280;61288;53.446;-2.266;2023-05-13T12:57:42;102474.78;;;21.49;42.72
73101;BME280;61288;53.446;-2.266;2023-05-13T13:00:09;102474.56;;;21.68;42.88
73101;BME280;61288;53.446;-2.266;2023-05-13T13:02:37;102480.34;;;21.75;43.87
73101;BME280;61288;53.446;-2.266;2023-05-13T13:05:03;102470.63;;;21.75;41.56
73101;BME280;61288;53.446;-2.266;2023-05-13T13:07:29;102478.44;;;21.91;42.45